sensor_id;sensor_type;location;lat;lon;timestamp;P1;durP1;ratioP1;P2;durP2;ratioP2
73382;SDS011;61600;48.126;11.542;2023-02-14T00:02:16;22.77;;;9.80;;
73382;SDS011;61600;48.126;11.542;2023-02-14T00:04:42;23.40;;;10.85;;
73382;SDS011;61600;48.126;11.542;2023-02-14T00:07:12;23.52;;;9.35;;
73382;SDS011;61600;48.126;11.542;2023-02-14T00:09:38;23.73;;;10.13;;
73382;SDS011;61600;48.126;11.542;2023-02-14T00:12:04;24.63;;;9.75;;
73382;SDS011;61600;48.126;11.542;2023-02-14T00:14:30;20.40;;;9.23;;
73382;SDS011;61600;48.126;11.542;2023-02-14T00:17:14;29.50;;;10.25;;
73382;SDS011;61600;48.126;11.542;2023-02-14T00:19:40;23.65;;;10.18;;
73382;SDS011;61600;48.126;11.542;2023-02-14T00:22:06;25.70;;;10.85;;
73382;SDS011;61600;48.126;11.542;2023-02-14T00:24:32;23.13;;;11.05;;
73382;SDS011;61600;48.126;11.542;2023-02-14T00:26:57;23.27;;;9.85;;
73382;SDS011;61600;48.126;11.542;2023-02-14T00:29:25;23.13;;;10.50;;
73382;SDS011;61600;48.126;11.542;2023-02-14T00:31:53;22.63;;;9.40;;
73382;SDS011;61600;48.126;11.542;2023-02-14T00:34:18;19.05;;;8.45;;
73382;SDS011;61600;48.126;11.542;2023-02-14T00:36:45;18.75;;;9.23;;
73382;SDS011;61600;48.126;11.542;2023-02-14T00:39:11;19.52;;;8.52;;
73382;SDS011;61600;48.126;11.542;2023-02-14T00:41:39;20.35;;;8.88;;
73382;SDS011;61600;48.126;11.542;2023-02-14T00:44:06;24.08;;;9.85;;
73382;SDS011;61600;48.126;11.542;2023-02-14T00:46:33;25.33;;;10.25;;
73382;SDS011;61600;48.126;11.542;2023-02-14T00:49:02;22.10;;;9.38;;
73382;SDS011;61600;48.126;11.542;2023-02-14T00:51:28;25.48;;;9.85;;
73382;SDS011;61600;48.126;11.542;2023-02-14T00:53:54;47.78;;;10.65;;
73382;SDS011;61600;48.126;11.542;2023-02-14T00:56:20;25.85;;;9.48;;
73382;SDS011;61600;48.126;11.542;2023-02-14T00:58:46;21.05;;;9.75;;
73382;SDS011;61600;48.126;11.542;2023-02-14T01:01:13;27.77;;;10.18;;
73382;SDS011;61600;48.126;11.542;2023-02-14T01:03:43;20.70;;;9.55;;
73382;SDS011;61600;48.126;11.542;2023-02-14T01:06:09;21.40;;;9.30;;
73382;SDS011;61600;48.126;11.542;2023-02-14T01:08:37;27.55;;;9.98;;
73382;SDS011;61600;48.126;11.542;2023-02-14T01:11:07;25.27;;;10.10;;
73382;SDS011;61600;48.126;11.542;2023-02-14T01:13:38;27.42;;;9.55;;
73382;SDS011;61600;48.126;11.542;2023-02-14T01:16:08;23.58;;;9.25;;
73382;SDS011;61600;48.126;11.542;2023-02-14T01:18:35;41.60;;;10.57;;
73382;SDS011;61600;48.126;11.542;2023-02-14T01:21:08;23.20;;;10.02;;
73382;SDS011;61600;48.126;11.542;2023-02-14T01:23:55;25.40;;;8.88;;
73382;SDS011;61600;48.126;11.542;2023-02-14T01:26:22;21.50;;;8.82;;
73382;SDS011;61600;48.126;11.542;2023-02-14T01:28:49;26.67;;;9.05;;
73382;SDS011;61600;48.126;11.542;2023-02-14T01:31:19;21.10;;;7.75;;
73382;SDS011;61600;48.126;11.542;2023-02-14T01:33:52;19.00;;;8.63;;
73382;SDS011;61600;48.126;11.542;2023-02-14T01:36:20;40.53;;;10.73;;
73382;SDS011;61600;48.126;11.542;2023-02-14T01:38:55;32.17;;;10.07;;
73382;SDS011;61600;48.126;11.542;2023-02-14T01:41:24;22.55;;;9.32;;
73382;SDS011;61600;48.126;11.542;2023-02-14T01:46:17;21.75;;;9.68;;
73382;SDS011;61600;48.126;11.542;2023-02-14T01:48:42;40.60;;;12.55;;
73382;SDS011;61600;48.126;11.542;2023-02-14T01:51:08;29.35;;;9.88;;
73382;SDS011;61600;48.126;11.542;2023-02-14T01:53:34;24.33;;;9.80;;
73382;SDS011;61600;48.126;11.542;2023-02-14T01:56:07;20.60;;;9.02;;
73382;SDS011;61600;48.126;11.542;2023-02-14T01:58:38;20.73;;;9.75;;
73382;SDS011;61600;48.126;11.542;2023-02-14T02:01:12;22.80;;;8.48;;
73382;SDS011;61600;48.126;11.542;2023-02-14T02:06:18;22.38;;;8.63;;
73382;SDS011;61600;48.126;11.542;2023-02-14T02:12:09;23.95;;;9.88;;
73382;SDS011;61600;48.126;11.542;2023-02-14T02:14:36;19.63;;;9.52;;
73382;SDS011;61600;48.126;11.542;2023-02-14T02:31:33;20.65;;;8.82;;
73382;SDS011;61600;48.126;11.542;2023-02-14T02:43:55;18.40;;;8.15;;
73382;SDS011;61600;48.126;11.542;2023-02-14T02:46:36;19.98;;;7.38;;
73382;SDS011;61600;48.126;11.542;2023-02-14T02:49:20;19.90;;;7.78;;
73382;SDS011;61600;48.126;11.542;2023-02-14T02:52:14;26.65;;;8.32;;
73382;SDS011;61600;48.126;11.542;2023-02-14T02:55:07;21.20;;;8.93;;
73382;SDS011;61600;48.126;11.542;2023-02-14T02:57:40;19.73;;;9.13;;
73382;SDS011;61600;48.126;11.542;2023-02-14T03:02:40;23.63;;;9.20;;
73382;SDS011;61600;48.126;11.542;2023-02-14T03:05:27;19.33;;;8.48;;
73382;SDS011;61600;48.126;11.542;2023-02-14T03:07:53;20.35;;;9.30;;
73382;SDS011;61600;48.126;11.542;2023-02-14T03:10:20;24.02;;;10.75;;
73382;SDS011;61600;48.126;11.542;2023-02-14T03:12:54;19.88;;;8.60;;
73382;SDS011;61600;48.126;11.542;2023-02-14T03:18:06;21.63;;;9.48;;
73382;SDS011;61600;48.126;11.542;2023-02-14T03:21:07;29.55;;;9.45;;
73382;SDS011;61600;48.126;11.542;2023-02-14T03:24:36;22.23;;;8.82;;
73382;SDS011;61600;48.126;11.542;2023-02-14T03:26:44;24.20;;;9.02;;
73382;SDS011;61600;48.126;11.542;2023-02-14T03:42:05;26.48;;;9.50;;
73382;SDS011;61600;48.126;11.542;2023-02-14T03:44:36;22.58;;;9.85;;
73382;SDS011;61600;48.126;11.542;2023-02-14T03:47:08;26.13;;;9.48;;
73382;SDS011;61600;48.126;11.542;2023-02-14T03:49:41;19.70;;;8.52;;
73382;SDS011;61600;48.126;11.542;2023-02-14T03:52:13;18.23;;;8.80;;
73382;SDS011;61600;48.126;11.542;2023-02-14T03:54:40;19.15;;;9.23;;
73382;SDS011;61600;48.126;11.542;2023-02-14T03:57:16;20.73;;;9.25;;
73382;SDS011;61600;48.126;11.542;2023-02-14T03:59:47;21.15;;;8.93;;
73382;SDS011;61600;48.126;11.542;2023-02-14T04:02:14;20.08;;;8.57;;
73382;SDS011;61600;48.126;11.542;2023-02-14T04:04:47;22.23;;;8.80;;
73382;SDS011;61600;48.126;11.542;2023-02-14T04:07:15;22.60;;;8.88;;
73382;SDS011;61600;48.126;11.542;2023-02-14T04:09:43;17.83;;;8.38;;
73382;SDS011;61600;48.126;11.542;2023-02-14T04:12:09;27.05;;;9.32;;
73382;SDS011;61600;48.126;11.542;2023-02-14T04:14:36;18.60;;;7.93;;
73382;SDS011;61600;48.126;11.542;2023-02-14T04:17:02;17.17;;;7.70;;
73382;SDS011;61600;48.126;11.542;2023-02-14T04:19:47;16.73;;;7.95;;
73382;SDS011;61600;48.126;11.542;2023-02-14T04:22:13;23.50;;;8.85;;
73382;SDS011;61600;48.126;11.542;2023-02-14T04:24:39;19.83;;;9.85;;
73382;SDS011;61600;48.126;11.542;2023-02-14T04:27:05;18.20;;;8.43;;
73382;SDS011;61600;48.126;11.542;2023-02-14T04:32:07;15.57;;;7.10;;
73382;SDS011;61600;48.126;11.542;2023-02-14T04:34:34;22.80;;;9.98;;
73382;SDS011;61600;48.126;11.542;2023-02-14T04:37:01;19.27;;;8.40;;
73382;SDS011;61600;48.126;11.542;2023-02-14T04:39:27;19.45;;;7.15;;
73382;SDS011;61600;48.126;11.542;2023-02-14T04:41:53;15.95;;;7.95;;
73382;SDS011;61600;48.126;11.542;2023-02-14T04:44:18;18.13;;;7.93;;
73382;SDS011;61600;48.126;11.542;2023-02-14T04:46:44;17.60;;;7.68;;
73382;SDS011;61600;48.126;11.542;2023-02-14T04:49:10;17.92;;;7.15;;
73382;SDS011;61600;48.126;11.542;2023-02-14T04:51:36;19.05;;;8.27;;
73382;SDS011;61600;48.126;11.542;2023-02-14T04:54:02;18.85;;;8.32;;
73382;SDS011;61600;48.126;11.542;2023-02-14T04:56:27;20.98;;;8.35;;
73382;SDS011;61600;48.126;11.542;2023-02-14T04:58:53;38.78;;;9.27;;
73382;SDS011;61600;48.126;11.542;2023-02-14T05:01:19;18.90;;;7.90;;
73382;SDS011;61600;48.126;11.542;2023-02-14T05:03:45;16.25;;;6.68;;
73382;SDS011;61600;48.126;11.542;2023-02-14T05:06:11;15.90;;;7.28;;
73382;SDS011;61600;48.126;11.542;2023-02-14T05:08:36;13.50;;;6.97;;
73382;SDS011;61600;48.126;11.542;2023-02-14T05:11:02;16.27;;;7.00;;
73382;SDS011;61600;48.126;11.542;2023-02-14T05:13:28;19.40;;;7.20;;
73382;SDS011;61600;48.126;11.542;2023-02-14T05:15:54;30.88;;;9.13;;
73382;SDS011;61600;48.126;11.542;2023-02-14T05:18:20;19.23;;;7.22;;
73382;SDS011;61600;48.126;11.542;2023-02-14T05:20:52;19.92;;;7.35;;
73382;SDS011;61600;48.126;11.542;2023-02-14T05:23:19;17.80;;;7.78;;
73382;SDS011;61600;48.126;11.542;2023-02-14T05:25:48;19.73;;;7.40;;
73382;SDS011;61600;48.126;11.542;2023-02-14T05:28:15;15.38;;;7.05;;
73382;SDS011;61600;48.126;11.542;2023-02-14T05:30:41;22.08;;;8.63;;
73382;SDS011;61600;48.126;11.542;2023-02-14T05:33:06;18.92;;;8.13;;
73382;SDS011;61600;48.126;11.542;2023-02-14T05:35:33;20.05;;;7.97;;
73382;SDS011;61600;48.126;11.542;2023-02-14T05:37:58;18.90;;;7.07;;
73382;SDS011;61600;48.126;11.542;2023-02-14T05:40:24;18.15;;;7.40;;
73382;SDS011;61600;48.126;11.542;2023-02-14T05:42:51;16.10;;;7.28;;
73382;SDS011;61600;48.126;11.542;2023-02-14T05:45:18;16.67;;;7.05;;
73382;SDS011;61600;48.126;11.542;2023-02-14T05:47:44;17.80;;;7.45;;
73382;SDS011;61600;48.126;11.542;2023-02-14T05:50:12;16.80;;;7.32;;
73382;SDS011;61600;48.126;11.542;2023-02-14T05:52:37;18.75;;;7.57;;
73382;SDS011;61600;48.126;11.542;2023-02-14T05:55:03;18.30;;;7.05;;
73382;SDS011;61600;48.126;11.542;2023-02-14T05:57:30;15.88;;;7.25;;
73382;SDS011;61600;48.126;11.542;2023-02-14T05:59:55;18.02;;;7.75;;
73382;SDS011;61600;48.126;11.542;2023-02-14T06:02:22;22.60;;;9.13;;
73382;SDS011;61600;48.126;11.542;2023-02-14T06:04:47;22.83;;;8.68;;
73382;SDS011;61600;48.126;11.542;2023-02-14T06:07:13;16.00;;;7.55;;
73382;SDS011;61600;48.126;11.542;2023-02-14T06:09:39;22.55;;;8.10;;
73382;SDS011;61600;48.126;11.542;2023-02-14T06:12:05;19.25;;;8.52;;
73382;SDS011;61600;48.126;11.542;2023-02-14T06:14:31;21.65;;;8.63;;
73382;SDS011;61600;48.126;11.542;2023-02-14T06:16:57;17.27;;;6.78;;
73382;SDS011;61600;48.126;11.542;2023-02-14T06:19:23;19.92;;;8.13;;
73382;SDS011;61600;48.126;11.542;2023-02-14T06:21:48;22.10;;;8.45;;
73382;SDS011;61600;48.126;11.542;2023-02-14T06:24:14;18.48;;;7.90;;
73382;SDS011;61600;48.126;11.542;2023-02-14T06:26:40;18.27;;;7.85;;
73382;SDS011;61600;48.126;11.542;2023-02-14T06:29:14;26.80;;;8.60;;
73382;SDS011;61600;48.126;11.542;2023-02-14T06:31:41;18.83;;;9.07;;
73382;SDS011;61600;48.126;11.542;2023-02-14T06:34:09;24.15;;;8.95;;
73382;SDS011;61600;48.126;11.542;2023-02-14T06:36:38;20.58;;;8.35;;
73382;SDS011;61600;48.126;11.542;2023-02-14T06:39:04;22.55;;;8.30;;
73382;SDS011;61600;48.126;11.542;2023-02-14T06:41:30;16.67;;;8.25;;
73382;SDS011;61600;48.126;11.542;2023-02-14T06:43:58;20.75;;;8.32;;
73382;SDS011;61600;48.126;11.542;2023-02-14T06:46:24;19.50;;;8.32;;
73382;SDS011;61600;48.126;11.542;2023-02-14T06:48:50;18.75;;;8.60;;
73382;SDS011;61600;48.126;11.542;2023-02-14T06:51:16;19.52;;;8.82;;
73382;SDS011;61600;48.126;11.542;2023-02-14T06:53:42;24.23;;;7.57;;
73382;SDS011;61600;48.126;11.542;2023-02-14T06:56:08;18.70;;;8.02;;
73382;SDS011;61600;48.126;11.542;2023-02-14T06:58:34;18.15;;;8.25;;
73382;SDS011;61600;48.126;11.542;2023-02-14T07:01:00;19.20;;;8.48;;
73382;SDS011;61600;48.126;11.542;2023-02-14T07:03:35;18.63;;;8.52;;
73382;SDS011;61600;48.126;11.542;2023-02-14T07:06:01;18.95;;;8.30;;
73382;SDS011;61600;48.126;11.542;2023-02-14T07:08:26;18.67;;;7.72;;
73382;SDS011;61600;48.126;11.542;2023-02-14T07:10:56;18.80;;;8.35;;
73382;SDS011;61600;48.126;11.542;2023-02-14T07:13:22;19.75;;;8.93;;
73382;SDS011;61600;48.126;11.542;2023-02-14T07:15:49;16.15;;;6.50;;
73382;SDS011;61600;48.126;11.542;2023-02-14T07:18:15;14.68;;;7.05;;
73382;SDS011;61600;48.126;11.542;2023-02-14T07:20:40;17.95;;;8.43;;
73382;SDS011;61600;48.126;11.542;2023-02-14T07:23:06;18.38;;;7.38;;
73382;SDS011;61600;48.126;11.542;2023-02-14T07:25:32;14.65;;;7.03;;
73382;SDS011;61600;48.126;11.542;2023-02-14T07:27:58;14.75;;;6.63;;
73382;SDS011;61600;48.126;11.542;2023-02-14T07:30:24;17.23;;;7.50;;
73382;SDS011;61600;48.126;11.542;2023-02-14T07:32:50;15.30;;;7.18;;
73382;SDS011;61600;48.126;11.542;2023-02-14T07:35:15;15.00;;;7.00;;
73382;SDS011;61600;48.126;11.542;2023-02-14T07:37:41;15.85;;;7.32;;
73382;SDS011;61600;48.126;11.542;2023-02-14T07:40:07;20.05;;;8.15;;
73382;SDS011;61600;48.126;11.542;2023-02-14T07:42:33;15.30;;;7.05;;
73382;SDS011;61600;48.126;11.542;2023-02-14T07:44:59;17.55;;;8.32;;
73382;SDS011;61600;48.126;11.542;2023-02-14T07:47:25;14.45;;;7.15;;
73382;SDS011;61600;48.126;11.542;2023-02-14T07:49:50;18.42;;;8.02;;
73382;SDS011;61600;48.126;11.542;2023-02-14T07:52:16;16.45;;;6.97;;
73382;SDS011;61600;48.126;11.542;2023-02-14T07:54:42;20.17;;;7.60;;
73382;SDS011;61600;48.126;11.542;2023-02-14T07:57:08;15.68;;;7.45;;
73382;SDS011;61600;48.126;11.542;2023-02-14T07:59:34;15.95;;;6.80;;
73382;SDS011;61600;48.126;11.542;2023-02-14T08:01:59;15.00;;;6.60;;
73382;SDS011;61600;48.126;11.542;2023-02-14T08:04:25;15.75;;;6.78;;
73382;SDS011;61600;48.126;11.542;2023-02-14T08:06:51;14.82;;;7.30;;
73382;SDS011;61600;48.126;11.542;2023-02-14T08:09:18;18.60;;;8.07;;
73382;SDS011;61600;48.126;11.542;2023-02-14T08:11:51;14.55;;;6.53;;
73382;SDS011;61600;48.126;11.542;2023-02-14T08:14:37;15.57;;;6.82;;
73382;SDS011;61600;48.126;11.542;2023-02-14T08:17:03;13.07;;;6.25;;
73382;SDS011;61600;48.126;11.542;2023-02-14T08:19:32;19.58;;;9.50;;
73382;SDS011;61600;48.126;11.542;2023-02-14T08:21:58;18.17;;;8.15;;
73382;SDS011;61600;48.126;11.542;2023-02-14T08:24:24;14.52;;;6.38;;
73382;SDS011;61600;48.126;11.542;2023-02-14T08:26:50;18.75;;;7.55;;
73382;SDS011;61600;48.126;11.542;2023-02-14T08:29:16;13.95;;;6.32;;
73382;SDS011;61600;48.126;11.542;2023-02-14T08:31:42;15.52;;;6.45;;
73382;SDS011;61600;48.126;11.542;2023-02-14T08:34:09;17.52;;;7.95;;
73382;SDS011;61600;48.126;11.542;2023-02-14T08:36:35;23.27;;;7.93;;
73382;SDS011;61600;48.126;11.542;2023-02-14T08:39:02;15.43;;;7.30;;
73382;SDS011;61600;48.126;11.542;2023-02-14T08:41:29;20.35;;;7.70;;
73382;SDS011;61600;48.126;11.542;2023-02-14T08:43:54;18.35;;;7.35;;
73382;SDS011;61600;48.126;11.542;2023-02-14T08:46:20;14.82;;;7.05;;
73382;SDS011;61600;48.126;11.542;2023-02-14T08:48:46;18.20;;;7.38;;
73382;SDS011;61600;48.126;11.542;2023-02-14T08:51:14;16.38;;;7.25;;
73382;SDS011;61600;48.126;11.542;2023-02-14T08:53:41;18.50;;;8.48;;
73382;SDS011;61600;48.126;11.542;2023-02-14T08:56:09;20.40;;;7.88;;
73382;SDS011;61600;48.126;11.542;2023-02-14T08:58:45;17.15;;;7.50;;
73382;SDS011;61600;48.126;11.542;2023-02-14T09:01:12;17.45;;;8.10;;
73382;SDS011;61600;48.126;11.542;2023-02-14T09:03:40;19.20;;;7.95;;
73382;SDS011;61600;48.126;11.542;2023-02-14T09:06:07;18.00;;;7.60;;
73382;SDS011;61600;48.126;11.542;2023-02-14T09:08:34;18.45;;;8.25;;
73382;SDS011;61600;48.126;11.542;2023-02-14T09:11:06;22.65;;;8.75;;
73382;SDS011;61600;48.126;11.542;2023-02-14T09:16:03;18.35;;;7.80;;
73382;SDS011;61600;48.126;11.542;2023-02-14T09:18:30;18.88;;;8.95;;
73382;SDS011;61600;48.126;11.542;2023-02-14T09:20:55;17.33;;;8.13;;
73382;SDS011;61600;48.126;11.542;2023-02-14T09:23:21;17.48;;;7.47;;
73382;SDS011;61600;48.126;11.542;2023-02-14T09:25:47;17.95;;;7.82;;
73382;SDS011;61600;48.126;11.542;2023-02-14T09:28:13;17.95;;;7.88;;
73382;SDS011;61600;48.126;11.542;2023-02-14T09:30:38;18.35;;;7.93;;
73382;SDS011;61600;48.126;11.542;2023-02-14T09:33:04;18.40;;;8.55;;
73382;SDS011;61600;48.126;11.542;2023-02-14T09:35:30;22.92;;;9.05;;
73382;SDS011;61600;48.126;11.542;2023-02-14T09:37:56;28.48;;;8.88;;
73382;SDS011;61600;48.126;11.542;2023-02-14T09:40:40;19.38;;;8.73;;
73382;SDS011;61600;48.126;11.542;2023-02-14T09:43:27;19.67;;;9.10;;
73382;SDS011;61600;48.126;11.542;2023-02-14T09:45:57;34.13;;;9.13;;
73382;SDS011;61600;48.126;11.542;2023-02-14T09:48:34;18.25;;;7.85;;
73382;SDS011;61600;48.126;11.542;2023-02-14T09:51:06;17.30;;;7.68;;
73382;SDS011;61600;48.126;11.542;2023-02-14T09:53:39;20.63;;;9.65;;
73382;SDS011;61600;48.126;11.542;2023-02-14T09:57:12;24.98;;;9.82;;
73382;SDS011;61600;48.126;11.542;2023-02-14T09:59:16;22.65;;;8.95;;
73382;SDS011;61600;48.126;11.542;2023-02-14T10:01:49;26.90;;;9.68;;
73382;SDS011;61600;48.126;11.542;2023-02-14T10:14:53;22.67;;;10.15;;
73382;SDS011;61600;48.126;11.542;2023-02-14T10:17:35;22.35;;;9.88;;
73382;SDS011;61600;48.126;11.542;2023-02-14T10:20:13;17.92;;;8.52;;
73382;SDS011;61600;48.126;11.542;2023-02-14T10:26:17;19.63;;;9.32;;
73382;SDS011;61600;48.126;11.542;2023-02-14T10:28:50;22.02;;;9.38;;
73382;SDS011;61600;48.126;11.542;2023-02-14T10:31:25;22.15;;;9.02;;
73382;SDS011;61600;48.126;11.542;2023-02-14T10:34:19;34.58;;;9.85;;
73382;SDS011;61600;48.126;11.542;2023-02-14T10:37:16;25.67;;;10.35;;
73382;SDS011;61600;48.126;11.542;2023-02-14T10:51:29;22.92;;;10.32;;
73382;SDS011;61600;48.126;11.542;2023-02-14T10:54:15;20.40;;;11.15;;
73382;SDS011;61600;48.126;11.542;2023-02-14T10:56:48;30.80;;;10.88;;
73382;SDS011;61600;48.126;11.542;2023-02-14T10:59:23;28.02;;;10.38;;
73382;SDS011;61600;48.126;11.542;2023-02-14T11:02:12;23.75;;;10.43;;
73382;SDS011;61600;48.126;11.542;2023-02-14T11:04:40;24.27;;;11.00;;
73382;SDS011;61600;48.126;11.542;2023-02-14T11:07:14;22.60;;;11.15;;
73382;SDS011;61600;48.126;11.542;2023-02-14T11:09:41;27.90;;;10.75;;
73382;SDS011;61600;48.126;11.542;2023-02-14T11:12:08;26.20;;;11.57;;
73382;SDS011;61600;48.126;11.542;2023-02-14T11:14:35;22.80;;;11.05;;
73382;SDS011;61600;48.126;11.542;2023-02-14T11:17:25;28.92;;;12.57;;
73382;SDS011;61600;48.126;11.542;2023-02-14T11:20:00;24.67;;;11.65;;
73382;SDS011;61600;48.126;11.542;2023-02-14T11:22:32;26.38;;;13.05;;
73382;SDS011;61600;48.126;11.542;2023-02-14T11:25:06;32.67;;;12.48;;
73382;SDS011;61600;48.126;11.542;2023-02-14T11:27:45;28.67;;;11.95;;
73382;SDS011;61600;48.126;11.542;2023-02-14T11:30:19;24.23;;;11.82;;
73382;SDS011;61600;48.126;11.542;2023-02-14T11:32:51;30.23;;;12.65;;
73382;SDS011;61600;48.126;11.542;2023-02-14T11:35:19;29.83;;;12.85;;
73382;SDS011;61600;48.126;11.542;2023-02-14T11:37:55;27.23;;;12.07;;
73382;SDS011;61600;48.126;11.542;2023-02-14T11:40:32;24.75;;;11.95;;
73382;SDS011;61600;48.126;11.542;2023-02-14T11:43:01;27.20;;;12.63;;
73382;SDS011;61600;48.126;11.542;2023-02-14T11:45:44;29.27;;;12.13;;
73382;SDS011;61600;48.126;11.542;2023-02-14T11:48:22;24.65;;;11.95;;
73382;SDS011;61600;48.126;11.542;2023-02-14T11:50:54;35.00;;;13.85;;
73382;SDS011;61600;48.126;11.542;2023-02-14T11:53:27;28.20;;;12.13;;
73382;SDS011;61600;48.126;11.542;2023-02-14T11:55:57;25.65;;;12.23;;
73382;SDS011;61600;48.126;11.542;2023-02-14T11:58:31;26.45;;;13.07;;
73382;SDS011;61600;48.126;11.542;2023-02-14T12:01:01;38.13;;;16.38;;
73382;SDS011;61600;48.126;11.542;2023-02-14T12:03:31;28.42;;;13.63;;
73382;SDS011;61600;48.126;11.542;2023-02-14T12:06:03;24.15;;;12.43;;
73382;SDS011;61600;48.126;11.542;2023-02-14T12:08:30;37.97;;;11.73;;
73382;SDS011;61600;48.126;11.542;2023-02-14T12:11:04;30.02;;;11.75;;
73382;SDS011;61600;48.126;11.542;2023-02-14T12:13:41;23.17;;;11.13;;
73382;SDS011;61600;48.126;11.542;2023-02-14T12:16:20;22.27;;;11.20;;
73382;SDS011;61600;48.126;11.542;2023-02-14T12:26:45;29.85;;;11.52;;
73382;SDS011;61600;48.126;11.542;2023-02-14T12:32:26;24.42;;;11.45;;
73382;SDS011;61600;48.126;11.542;2023-02-14T12:45:58;23.35;;;10.20;;
73382;SDS011;61600;48.126;11.542;2023-02-14T12:51:48;21.55;;;11.02;;
73382;SDS011;61600;48.126;11.542;2023-02-14T12:54:31;22.52;;;10.55;;
73382;SDS011;61600;48.126;11.542;2023-02-14T13:11:09;23.45;;;10.52;;
73382;SDS011;61600;48.126;11.542;2023-02-14T13:19:58;22.48;;;9.80;;
73382;SDS011;61600;48.126;11.542;2023-02-14T13:22:28;25.17;;;11.35;;
73382;SDS011;61600;48.126;11.542;2023-02-14T13:24:56;23.98;;;10.57;;
73382;SDS011;61600;48.126;11.542;2023-02-14T13:27:26;22.70;;;10.23;;
73382;SDS011;61600;48.126;11.542;2023-02-14T13:29:57;22.98;;;10.38;;
73382;SDS011;61600;48.126;11.542;2023-02-14T13:32:28;23.13;;;9.88;;
73382;SDS011;61600;48.126;11.542;2023-02-14T13:34:57;21.08;;;9.88;;
73382;SDS011;61600;48.126;11.542;2023-02-14T13:37:24;19.42;;;10.20;;
73382;SDS011;61600;48.126;11.542;2023-02-14T13:39:59;24.70;;;10.95;;
73382;SDS011;61600;48.126;11.542;2023-02-14T13:50:56;22.92;;;9.65;;
73382;SDS011;61600;48.126;11.542;2023-02-14T13:53:29;42.05;;;11.07;;
73382;SDS011;61600;48.126;11.542;2023-02-14T13:55:56;23.98;;;9.57;;
73382;SDS011;61600;48.126;11.542;2023-02-14T13:58:22;22.80;;;9.57;;
73382;SDS011;61600;48.126;11.542;2023-02-14T14:00:50;19.58;;;9.30;;
73382;SDS011;61600;48.126;11.542;2023-02-14T14:08:45;19.45;;;10.23;;
73382;SDS011;61600;48.126;11.542;2023-02-14T14:14:02;20.50;;;9.77;;
73382;SDS011;61600;48.126;11.542;2023-02-14T14:16:55;18.92;;;9.30;;
73382;SDS011;61600;48.126;11.542;2023-02-14T14:22:02;16.70;;;9.50;;
73382;SDS011;61600;48.126;11.542;2023-02-14T14:24:30;21.70;;;10.30;;
73382;SDS011;61600;48.126;11.542;2023-02-14T14:26:59;32.97;;;11.27;;
73382;SDS011;61600;48.126;11.542;2023-02-14T14:29:38;23.00;;;10.43;;
73382;SDS011;61600;48.126;11.542;2023-02-14T14:32:09;20.45;;;9.18;;
73382;SDS011;61600;48.126;11.542;2023-02-14T14:34:36;22.45;;;10.48;;
73382;SDS011;61600;48.126;11.542;2023-02-14T14:37:06;19.95;;;9.18;;
73382;SDS011;61600;48.126;11.542;2023-02-14T14:39:40;21.50;;;10.25;;
73382;SDS011;61600;48.126;11.542;2023-02-14T14:42:12;20.02;;;10.48;;
73382;SDS011;61600;48.126;11.542;2023-02-14T14:44:47;22.30;;;9.57;;
73382;SDS011;61600;48.126;11.542;2023-02-14T14:47:16;20.90;;;10.02;;
73382;SDS011;61600;48.126;11.542;2023-02-14T14:49:46;22.02;;;9.32;;
73382;SDS011;61600;48.126;11.542;2023-02-14T14:52:33;19.90;;;9.35;;
73382;SDS011;61600;48.126;11.542;2023-02-14T14:55:02;19.23;;;9.32;;
73382;SDS011;61600;48.126;11.542;2023-02-14T14:57:30;18.65;;;9.70;;
73382;SDS011;61600;48.126;11.542;2023-02-14T15:00:12;21.00;;;9.98;;
73382;SDS011;61600;48.126;11.542;2023-02-14T15:05:42;25.48;;;13.40;;
73382;SDS011;61600;48.126;11.542;2023-02-14T15:11:02;21.30;;;9.88;;
73382;SDS011;61600;48.126;11.542;2023-02-14T15:13:37;18.92;;;9.57;;
73382;SDS011;61600;48.126;11.542;2023-02-14T15:16:31;24.63;;;9.88;;
73382;SDS011;61600;48.126;11.542;2023-02-14T15:19:09;24.55;;;10.20;;
73382;SDS011;61600;48.126;11.542;2023-02-14T15:21:41;20.45;;;10.32;;
73382;SDS011;61600;48.126;11.542;2023-02-14T15:24:15;22.05;;;9.95;;
73382;SDS011;61600;48.126;11.542;2023-02-14T15:26:43;19.88;;;9.73;;
73382;SDS011;61600;48.126;11.542;2023-02-14T15:29:21;18.60;;;9.45;;
73382;SDS011;61600;48.126;11.542;2023-02-14T15:31:53;21.35;;;9.55;;
73382;SDS011;61600;48.126;11.542;2023-02-14T15:34:25;21.77;;;10.63;;
73382;SDS011;61600;48.126;11.542;2023-02-14T15:36:53;20.02;;;10.48;;
73382;SDS011;61600;48.126;11.542;2023-02-14T15:39:42;20.40;;;9.35;;
73382;SDS011;61600;48.126;11.542;2023-02-14T15:42:23;22.45;;;10.50;;
73382;SDS011;61600;48.126;11.542;2023-02-14T15:47:47;23.75;;;9.93;;
73382;SDS011;61600;48.126;11.542;2023-02-14T15:50:20;22.38;;;10.55;;
73382;SDS011;61600;48.126;11.542;2023-02-14T15:52:54;21.15;;;10.13;;
73382;SDS011;61600;48.126;11.542;2023-02-14T15:55:45;36.35;;;13.13;;
73382;SDS011;61600;48.126;11.542;2023-02-14T15:58:20;27.40;;;11.05;;
73382;SDS011;61600;48.126;11.542;2023-02-14T16:00:48;22.50;;;10.45;;
73382;SDS011;61600;48.126;11.542;2023-02-14T16:03:20;24.05;;;10.52;;
73382;SDS011;61600;48.126;11.542;2023-02-14T16:05:48;26.25;;;11.32;;
73382;SDS011;61600;48.126;11.542;2023-02-14T16:11:05;22.20;;;10.13;;
73382;SDS011;61600;48.126;11.542;2023-02-14T16:13:41;19.13;;;9.55;;
73382;SDS011;61600;48.126;11.542;2023-02-14T16:16:10;22.35;;;9.63;;
73382;SDS011;61600;48.126;11.542;2023-02-14T16:18:41;22.83;;;10.15;;
73382;SDS011;61600;48.126;11.542;2023-02-14T16:21:12;22.92;;;10.45;;
73382;SDS011;61600;48.126;11.542;2023-02-14T16:23:39;20.60;;;9.60;;
73382;SDS011;61600;48.126;11.542;2023-02-14T16:26:05;22.27;;;10.35;;
73382;SDS011;61600;48.126;11.542;2023-02-14T16:28:32;22.40;;;9.95;;
73382;SDS011;61600;48.126;11.542;2023-02-14T16:30:59;24.67;;;9.95;;
73382;SDS011;61600;48.126;11.542;2023-02-14T16:33:28;26.00;;;10.48;;
73382;SDS011;61600;48.126;11.542;2023-02-14T16:36:00;34.50;;;10.70;;
73382;SDS011;61600;48.126;11.542;2023-02-14T16:38:40;25.80;;;10.52;;
73382;SDS011;61600;48.126;11.542;2023-02-14T16:41:12;30.02;;;11.63;;
73382;SDS011;61600;48.126;11.542;2023-02-14T16:43:40;24.25;;;10.50;;
73382;SDS011;61600;48.126;11.542;2023-02-14T16:46:09;20.15;;;9.38;;
73382;SDS011;61600;48.126;11.542;2023-02-14T16:48:36;20.63;;;9.77;;
73382;SDS011;61600;48.126;11.542;2023-02-14T16:51:02;24.80;;;9.93;;
73382;SDS011;61600;48.126;11.542;2023-02-14T16:53:27;21.98;;;9.88;;
73382;SDS011;61600;48.126;11.542;2023-02-14T16:55:54;25.75;;;10.15;;
73382;SDS011;61600;48.126;11.542;2023-02-14T16:58:22;20.83;;;9.40;;
73382;SDS011;61600;48.126;11.542;2023-02-14T17:00:53;26.77;;;10.82;;
73382;SDS011;61600;48.126;11.542;2023-02-14T17:03:18;25.60;;;10.43;;
73382;SDS011;61600;48.126;11.542;2023-02-14T17:05:44;26.83;;;10.25;;
73382;SDS011;61600;48.126;11.542;2023-02-14T17:08:11;31.08;;;10.45;;
73382;SDS011;61600;48.126;11.542;2023-02-14T17:10:38;25.42;;;9.48;;
73382;SDS011;61600;48.126;11.542;2023-02-14T17:13:06;23.85;;;10.15;;
73382;SDS011;61600;48.126;11.542;2023-02-14T17:15:33;24.70;;;9.88;;